createdAt,value
2023-04-17T00:00:09.560Z,10.10
2023-04-17T00:01:41.335Z,10.10
2023-04-17T00:03:14.265Z,10.10
2023-04-17T00:04:47.287Z,9.90
2023-04-17T00:06:20.118Z,10.00
2023-04-17T00:07:51.840Z,10.00
2023-04-17T00:09:24.522Z,9.90
2023-04-17T00:11:07.127Z,9.90
2023-04-17T00:12:42.263Z,9.90
2023-04-17T00:14:15.200Z,9.90
2023-04-17T00:15:46.945Z,9.90
2023-04-17T00:17:19.695Z,10.00
2023-04-17T00:18:52.435Z,9.90
2023-04-17T00:20:25.414Z,10.00
2023-04-17T00:21:58.162Z,10.00
2023-04-17T00:23:30.850Z,10.00
2023-04-17T00:25:03.657Z,10.00
2023-04-17T00:26:35.425Z,10.00
2023-04-17T00:28:09.475Z,10.00
2023-04-17T00:29:42.189Z,10.00
2023-04-17T00:31:14.933Z,10.00
2023-04-17T00:32:47.753Z,10.00
2023-04-17T00:34:20.532Z,10.00
2023-04-17T00:35:53.232Z,10.00
2023-04-17T00:37:24.997Z,9.90
2023-04-17T00:38:57.686Z,9.90
2023-04-17T00:40:30.399Z,9.90
2023-04-17T00:42:03.527Z,9.90
2023-04-17T00:43:37.686Z,9.90
2023-04-17T00:45:10.941Z,9.90
2023-04-17T00:46:43.771Z,9.90
2023-04-17T00:48:17.747Z,9.90
2023-04-17T00:49:51.466Z,9.90
2023-04-17T00:51:23.401Z,9.90
2023-04-17T00:52:56.582Z,9.90
2023-04-17T00:54:29.248Z,9.90
2023-04-17T00:56:04.345Z,9.90
2023-04-17T00:57:37.489Z,9.90
2023-04-17T00:59:13.836Z,9.90
2023-04-17T01:00:46.949Z,9.90
2023-04-17T01:02:19.866Z,9.90
2023-04-17T01:03:52.784Z,10.00
2023-04-17T01:05:27.377Z,10.00
2023-04-17T01:07:00.138Z,10.00
2023-04-17T01:08:42.172Z,10.00
2023-04-17T01:10:14.011Z,10.10
2023-04-17T01:11:46.709Z,10.10
2023-04-17T01:13:19.389Z,10.10
2023-04-17T01:14:53.063Z,10.10
2023-04-17T01:16:25.794Z,10.10
2023-04-17T01:17:58.764Z,10.10
2023-04-17T01:19:32.387Z,10.20
2023-04-17T01:21:05.614Z,10.20
2023-04-17T01:22:38.372Z,10.20
2023-04-17T01:24:12.507Z,10.10
2023-04-17T01:25:44.337Z,10.20
2023-04-17T01:27:17.043Z,10.20
2023-04-17T01:28:54.167Z,10.20
2023-04-17T01:30:26.883Z,10.30
2023-04-17T01:31:59.579Z,10.30
2023-04-17T01:33:32.330Z,10.30
2023-04-17T01:35:05.483Z,10.30
2023-04-17T01:36:38.187Z,10.30
2023-04-17T01:38:10.894Z,10.30
2023-04-17T01:39:44.932Z,10.30
2023-04-17T01:41:16.734Z,10.40
2023-04-17T01:42:49.426Z,10.40
2023-04-17T01:44:22.144Z,10.40
2023-04-17T01:45:54.836Z,10.40
2023-04-17T01:47:27.567Z,10.40
2023-04-17T01:48:59.623Z,10.40
2023-04-17T01:50:32.311Z,10.50
2023-04-17T01:52:04.081Z,10.40
2023-04-17T01:53:37.529Z,10.40
2023-04-17T01:55:11.978Z,10.50
2023-04-17T01:56:43.711Z,10.50
2023-04-17T01:58:16.408Z,10.40
2023-04-17T01:59:49.079Z,10.50
2023-04-17T02:01:21.892Z,10.50
2023-04-17T02:02:54.746Z,10.50
2023-04-17T02:04:27.718Z,10.50
2023-04-17T02:05:59.586Z,10.50
2023-04-17T02:07:32.291Z,10.50
2023-04-17T02:09:04.091Z,10.50
2023-04-17T02:10:38.113Z,10.50
2023-04-17T02:12:10.878Z,10.50
2023-04-17T02:13:42.635Z,10.50
2023-04-17T02:15:15.587Z,10.60
2023-04-17T02:16:48.292Z,10.60
2023-04-17T02:18:21.111Z,10.60
2023-04-17T02:19:53.898Z,10.60
2023-04-17T02:21:27.241Z,10.60
2023-04-17T02:23:00.021Z,10.60
2023-04-17T02:24:32.755Z,10.60
2023-04-17T02:26:06.931Z,10.60
2023-04-17T02:27:38.721Z,10.60
2023-04-17T02:29:11.681Z,10.60
2023-04-17T02:30:45.641Z,10.60
2023-04-17T02:32:17.516Z,10.60
2023-04-17T02:33:50.236Z,10.60
2023-04-17T02:35:23.308Z,10.60
2023-04-17T02:36:56.040Z,10.60
2023-04-17T02:38:29.999Z,10.60
2023-04-17T02:40:03.246Z,10.60
2023-04-17T02:41:37.445Z,10.60
2023-04-17T02:43:09.476Z,10.60
2023-04-17T02:44:42.185Z,10.60
2023-04-17T02:46:14.932Z,10.60
2023-04-17T02:47:46.705Z,10.60
2023-04-17T02:49:19.449Z,10.50
2023-04-17T02:50:51.210Z,10.50
2023-04-17T02:52:24.067Z,10.50
2023-04-17T02:53:56.748Z,10.50
2023-04-17T02:55:28.533Z,10.50
2023-04-17T02:57:03.049Z,10.40
2023-04-17T02:58:35.750Z,10.50
2023-04-17T03:00:08.327Z,10.40
2023-04-17T03:01:41.110Z,10.40
2023-04-17T03:03:13.080Z,10.40
2023-04-17T03:04:45.868Z,10.40
2023-04-17T03:06:18.560Z,10.40
2023-04-17T03:07:50.563Z,10.40
2023-04-17T03:09:23.678Z,10.40
2023-04-17T03:10:56.521Z,10.50
2023-04-17T03:12:29.580Z,10.50
2023-04-17T03:14:02.256Z,10.40
2023-04-17T03:15:35.098Z,10.40
2023-04-17T03:17:07.879Z,10.50
2023-04-17T03:18:41.695Z,10.40
2023-04-17T03:20:15.630Z,10.40
2023-04-17T03:21:48.386Z,10.40
2023-04-17T03:23:20.349Z,10.50
2023-04-17T03:24:53.078Z,10.50
2023-04-17T03:26:25.897Z,10.50
2023-04-17T03:27:59.902Z,10.50
2023-04-17T03:29:32.575Z,10.50
2023-04-17T03:31:04.365Z,10.50
2023-04-17T03:32:38.012Z,10.50
2023-04-17T03:34:10.860Z,10.50
2023-04-17T03:35:43.741Z,10.50
2023-04-17T03:37:16.434Z,10.40
2023-04-17T03:38:49.130Z,10.50
2023-04-17T03:40:21.829Z,10.50
2023-04-17T03:41:53.573Z,10.50
2023-04-17T03:43:27.651Z,10.50
2023-04-17T03:45:00.415Z,10.50
2023-04-17T03:46:33.155Z,10.40
2023-04-17T03:48:07.209Z,10.40
2023-04-17T03:49:39.964Z,10.40
2023-04-17T03:51:12.688Z,10.40
2023-04-17T03:52:45.396Z,10.40
2023-04-17T03:54:18.111Z,10.40
2023-04-17T03:55:50.909Z,10.40
2023-04-17T03:57:23.666Z,10.40
2023-04-17T03:58:57.699Z,10.40
2023-04-17T04:00:31.581Z,10.40
2023-04-17T04:02:04.462Z,10.30
2023-04-17T04:03:37.648Z,10.30
2023-04-17T04:05:10.933Z,10.30
2023-04-17T04:06:43.729Z,10.30
2023-04-17T04:08:16.437Z,10.30
2023-04-17T04:09:48.191Z,10.20
2023-04-17T04:11:21.129Z,10.20
2023-04-17T04:12:53.818Z,10.10
2023-04-17T04:14:27.944Z,10.10
2023-04-17T04:16:00.821Z,10.10
2023-04-17T04:17:33.665Z,10.10
2023-04-17T04:19:06.365Z,10.10
2023-04-17T04:20:38.234Z,10.00
2023-04-17T04:22:13.586Z,10.00
2023-04-17T04:23:46.299Z,10.00
2023-04-17T04:25:19.163Z,10.00
2023-04-17T04:26:51.905Z,10.00
2023-04-17T04:28:27.908Z,10.00
2023-04-17T04:30:02.215Z,9.90
2023-04-17T04:31:35.586Z,9.90
2023-04-17T04:33:08.454Z,10.00
2023-04-17T04:34:41.889Z,10.00
2023-04-17T04:36:20.877Z,10.00
2023-04-17T04:37:54.625Z,10.00
2023-04-17T04:39:29.829Z,10.00
2023-04-17T04:41:01.689Z,10.00
2023-04-17T04:42:34.440Z,10.10
2023-04-17T04:44:07.181Z,10.10
2023-04-17T04:45:41.230Z,10.10
2023-04-17T04:47:13.926Z,10.10
2023-04-17T04:48:45.728Z,10.10
2023-04-17T04:50:18.593Z,10.10
2023-04-17T04:51:51.294Z,10.10
2023-04-17T04:53:23.156Z,10.10
2023-04-17T04:54:55.938Z,10.00
2023-04-17T04:56:30.427Z,10.00
2023-04-17T04:58:03.503Z,10.00
2023-04-17T04:59:37.965Z,10.00
2023-04-17T05:01:13.170Z,10.00
2023-04-17T05:02:46.055Z,10.00
2023-04-17T05:04:19.052Z,10.00
2023-04-17T05:05:51.891Z,10.00
2023-04-17T05:07:24.570Z,10.00
2023-04-17T05:08:57.238Z,10.00
2023-04-17T05:10:29.933Z,10.00
2023-04-17T05:12:02.813Z,10.00
2023-04-17T05:13:35.608Z,10.00
2023-04-17T05:15:08.307Z,10.00
2023-04-17T05:16:43.152Z,10.00
2023-04-17T05:18:15.933Z,10.00
2023-04-17T05:19:48.621Z,10.00
2023-04-17T05:21:21.480Z,10.00
2023-04-17T05:22:54.198Z,10.00
2023-04-17T05:24:26.902Z,10.00
2023-04-17T05:25:59.612Z,10.00
2023-04-17T05:27:32.315Z,10.00
2023-04-17T05:29:05.034Z,10.00
2023-04-17T05:30:37.754Z,10.10
2023-04-17T05:32:11.819Z,10.10
2023-04-17T05:33:44.589Z,10.10
2023-04-17T05:35:17.319Z,10.10
2023-04-17T05:36:49.053Z,10.10
2023-04-17T05:38:21.749Z,10.10
2023-04-17T05:39:53.488Z,10.10
2023-04-17T05:41:27.875Z,10.20
2023-04-17T05:43:07.998Z,10.20
2023-04-17T05:44:40.678Z,10.30
2023-04-17T05:46:13.427Z,10.30
2023-04-17T05:47:47.691Z,10.30
2023-04-17T05:49:20.472Z,10.30
2023-04-17T05:50:53.321Z,10.40
2023-04-17T05:52:26.392Z,10.40
2023-04-17T05:53:59.064Z,10.40
2023-04-17T05:55:31.774Z,10.40
2023-04-17T05:57:04.590Z,10.50
2023-04-17T05:58:37.306Z,10.50
2023-04-17T06:00:12.893Z,10.60
2023-04-17T06:01:45.585Z,10.60
2023-04-17T06:03:20.959Z,10.60
2023-04-17T06:04:54.123Z,10.60
2023-04-17T06:06:27.481Z,10.70
2023-04-17T06:08:00.226Z,10.70
2023-04-17T06:09:33.419Z,10.70
2023-04-17T06:11:06.330Z,10.70
2023-04-17T06:12:39.400Z,10.80
2023-04-17T06:14:12.106Z,10.80
2023-04-17T06:15:44.942Z,10.80
2023-04-17T06:17:17.840Z,10.80
2023-04-17T06:18:51.954Z,10.80
2023-04-17T06:20:24.654Z,10.90
2023-04-17T06:21:58.014Z,10.90
2023-04-17T06:23:30.983Z,10.90
2023-04-17T06:25:04.151Z,10.90
2023-04-17T06:26:36.872Z,10.90
2023-04-17T06:28:10.191Z,10.90
2023-04-17T06:29:42.917Z,10.80
2023-04-17T06:31:15.783Z,10.90
2023-04-17T06:32:48.582Z,10.80
2023-04-17T06:34:22.733Z,10.90
2023-04-17T06:35:55.992Z,10.90
2023-04-17T06:37:28.936Z,10.90
2023-04-17T06:39:01.773Z,10.90
2023-04-17T06:40:34.502Z,10.90
2023-04-17T06:42:07.311Z,10.90
2023-04-17T06:43:40.059Z,10.90
2023-04-17T06:45:13.432Z,10.80
2023-04-17T06:46:46.227Z,10.80
2023-04-17T06:48:19.110Z,10.70
2023-04-17T06:49:53.154Z,10.70
2023-04-17T06:51:27.497Z,10.70
2023-04-17T06:53:00.252Z,10.60
2023-04-17T06:54:32.992Z,10.60
2023-04-17T06:56:06.361Z,10.60
2023-04-17T06:57:39.259Z,10.60
2023-04-17T06:59:12.203Z,10.60
2023-04-17T07:00:45.077Z,10.60
2023-04-17T07:02:19.430Z,10.60
2023-04-17T07:03:52.342Z,10.60
2023-04-17T07:05:26.666Z,10.60
2023-04-17T07:06:59.502Z,10.70
2023-04-17T07:08:32.274Z,10.70
2023-04-17T07:10:05.390Z,10.70
2023-04-17T07:11:38.073Z,10.70
2023-04-17T07:13:11.099Z,10.70
2023-04-17T07:14:44.272Z,10.70
2023-04-17T07:16:17.186Z,10.60
2023-04-17T07:17:50.027Z,10.70
2023-04-17T07:19:22.773Z,10.70
2023-04-17T07:20:57.181Z,10.70
2023-04-17T07:22:29.866Z,10.70
2023-04-17T07:24:02.556Z,10.70
2023-04-17T07:25:35.400Z,10.70
2023-04-17T07:27:08.182Z,10.70
2023-04-17T07:28:41.248Z,10.70
2023-04-17T07:30:14.882Z,10.70
2023-04-17T07:31:47.614Z,10.70
2023-04-17T07:33:20.630Z,10.80
2023-04-17T07:34:53.432Z,10.80
2023-04-17T07:36:28.427Z,10.80
2023-04-17T07:38:01.538Z,10.90
2023-04-17T07:39:34.243Z,10.90
2023-04-17T07:41:06.933Z,10.90
2023-04-17T07:42:39.627Z,10.90
2023-04-17T07:44:13.008Z,10.90
2023-04-17T07:45:45.728Z,10.90
2023-04-17T07:47:18.859Z,10.90
2023-04-17T07:48:51.657Z,10.90
2023-04-17T07:50:24.684Z,10.90
2023-04-17T07:51:58.751Z,10.90
2023-04-17T07:53:31.474Z,10.90
2023-04-17T07:55:04.356Z,11.00
2023-04-17T07:56:37.035Z,11.10
2023-04-17T07:58:11.381Z,11.10
2023-04-17T07:59:44.221Z,11.10
2023-04-17T08:01:16.995Z,11.10
2023-04-17T08:02:49.834Z,11.20
2023-04-17T08:04:22.883Z,11.30
2023-04-17T08:05:56.159Z,11.40
2023-04-17T08:07:30.187Z,11.40
2023-04-17T08:09:03.100Z,11.50
2023-04-17T08:10:36.009Z,11.60
2023-04-17T08:12:08.813Z,11.90
2023-04-17T08:13:41.854Z,12.20
2023-04-17T08:15:14.731Z,12.40
2023-04-17T08:16:48.014Z,12.60
2023-04-17T08:18:20.803Z,12.90
2023-04-17T08:19:54.465Z,13.00
2023-04-17T08:21:27.470Z,13.10
2023-04-17T08:23:01.532Z,13.10
2023-04-17T08:24:34.298Z,13.10
2023-04-17T08:26:07.144Z,13.00
2023-04-17T08:27:41.479Z,12.90
2023-04-17T08:29:14.517Z,12.90
2023-04-17T08:30:47.512Z,12.80
2023-04-17T08:32:20.522Z,12.80
2023-04-17T08:34:06.210Z,12.80
2023-04-17T08:35:46.327Z,12.80
2023-04-17T08:37:19.038Z,13.00
2023-04-17T08:38:53.065Z,13.10
2023-04-17T08:40:26.246Z,13.20
2023-04-17T08:42:00.844Z,13.20
2023-04-17T08:43:36.058Z,13.20
2023-04-17T08:45:10.911Z,13.10
2023-04-17T08:46:43.784Z,13.10
2023-04-17T08:48:16.551Z,12.90
2023-04-17T08:49:50.464Z,12.90
2023-04-17T08:51:27.852Z,12.80
2023-04-17T08:53:00.583Z,12.80
2023-04-17T08:54:35.190Z,12.80
2023-04-17T08:56:09.187Z,12.80
2023-04-17T08:57:58.614Z,12.70
2023-04-17T08:59:31.722Z,12.70
2023-04-17T09:01:11.685Z,12.70
2023-04-17T09:02:55.378Z,12.60
2023-04-17T09:04:37.011Z,12.50
2023-04-17T09:06:11.243Z,12.40
2023-04-17T09:07:44.500Z,12.40
2023-04-17T09:09:17.810Z,12.30
2023-04-17T09:10:53.091Z,12.10
2023-04-17T09:12:27.053Z,12.10
2023-04-17T09:14:01.153Z,12.00
2023-04-17T09:15:34.075Z,11.90
2023-04-17T09:17:06.786Z,11.80
2023-04-17T09:18:40.946Z,11.80
2023-04-17T09:20:14.231Z,11.70
2023-04-17T09:21:46.918Z,11.70
2023-04-17T09:23:20.012Z,11.70
2023-04-17T09:24:52.798Z,11.70
2023-04-17T09:26:27.807Z,11.60
2023-04-17T09:28:12.589Z,11.60
2023-04-17T09:29:57.613Z,11.60
2023-04-17T09:31:32.337Z,11.50
2023-04-17T09:33:06.698Z,11.50
2023-04-17T09:34:41.766Z,11.50
2023-04-17T09:36:22.361Z,11.50
2023-04-17T09:37:59.104Z,11.40
2023-04-17T09:39:31.834Z,11.40
2023-04-17T09:41:04.794Z,11.40
2023-04-17T09:42:58.030Z,11.40
2023-04-17T09:44:31.066Z,11.30
2023-04-17T09:46:03.794Z,11.30
2023-04-17T09:47:36.606Z,11.30
2023-04-17T09:49:15.511Z,11.40
2023-04-17T09:50:49.037Z,11.30
2023-04-17T09:52:23.623Z,11.30
2023-04-17T09:53:59.195Z,11.30
2023-04-17T09:55:33.261Z,11.30
2023-04-17T09:57:08.636Z,11.30
2023-04-17T09:58:43.219Z,11.30
2023-04-17T10:00:17.330Z,11.30
2023-04-17T10:01:51.291Z,11.30
2023-04-17T10:03:24.531Z,11.30
2023-04-17T10:04:57.585Z,11.30
2023-04-17T10:06:32.221Z,11.30
2023-04-17T10:08:05.667Z,11.30
2023-04-17T10:09:41.376Z,11.30
2023-04-17T10:11:14.427Z,11.30
2023-04-17T10:12:50.306Z,11.40
2023-04-17T10:14:27.499Z,11.40
2023-04-17T10:16:00.302Z,11.40
2023-04-17T10:17:36.386Z,11.40
2023-04-17T10:19:30.252Z,11.50
2023-04-17T10:21:22.691Z,11.50
2023-04-17T10:22:56.437Z,11.50
2023-04-17T10:24:29.346Z,11.50
2023-04-17T10:26:41.834Z,11.50
2023-04-17T10:28:14.571Z,11.50
2023-04-17T10:29:55.458Z,11.50
2023-04-17T10:32:25.901Z,11.50
2023-04-17T10:33:58.864Z,11.60
2023-04-17T10:35:36.213Z,11.60
2023-04-17T10:37:14.938Z,11.70
2023-04-17T10:38:47.647Z,11.70
2023-04-17T10:40:23.127Z,11.80
2023-04-17T10:42:03.292Z,11.80
2023-04-17T10:43:36.214Z,11.90
2023-04-17T10:45:20.202Z,12.00
2023-04-17T10:46:52.960Z,12.10
2023-04-17T10:48:29.778Z,12.10
2023-04-17T10:50:04.283Z,12.10
2023-04-17T10:51:41.521Z,12.20
2023-04-17T10:53:42.297Z,12.20
2023-04-17T10:55:17.425Z,12.20
2023-04-17T10:56:55.794Z,12.20
2023-04-17T10:58:31.591Z,12.20
2023-04-17T11:00:16.548Z,12.20
2023-04-17T11:02:03.989Z,12.20
2023-04-17T11:03:38.248Z,12.20
2023-04-17T11:05:11.913Z,12.30
2023-04-17T11:06:45.988Z,12.30
2023-04-17T11:08:18.791Z,12.40
2023-04-17T11:09:53.237Z,12.40
2023-04-17T11:11:40.575Z,12.50
2023-04-17T11:13:16.705Z,12.50
2023-04-17T11:14:49.387Z,12.60
2023-04-17T11:16:23.561Z,12.70
2023-04-17T11:17:57.809Z,12.80
2023-04-17T11:19:32.944Z,12.90
2023-04-17T11:21:06.257Z,13.00
2023-04-17T11:22:39.191Z,13.10
2023-04-17T11:24:12.254Z,13.10
2023-04-17T11:25:46.025Z,13.20
2023-04-17T11:27:18.866Z,13.20
2023-04-17T11:28:51.601Z,13.20
2023-04-17T11:30:31.904Z,13.20
2023-04-17T11:32:06.591Z,13.20
2023-04-17T11:33:39.442Z,13.40
2023-04-17T11:35:12.393Z,13.40
2023-04-17T11:36:50.080Z,13.50
2023-04-17T11:38:24.072Z,13.60
2023-04-17T11:40:07.535Z,13.60
2023-04-17T11:41:42.615Z,13.60
2023-04-17T11:43:15.663Z,13.60
2023-04-17T11:44:48.367Z,13.60
2023-04-17T11:46:21.157Z,13.60
2023-04-17T11:47:54.342Z,13.60
2023-04-17T11:49:27.509Z,13.60
2023-04-17T11:51:02.093Z,13.60
2023-04-17T11:52:33.883Z,13.70
2023-04-17T11:54:06.702Z,13.70
2023-04-17T11:55:39.838Z,13.70
2023-04-17T11:57:13.683Z,13.70
2023-04-17T11:58:47.834Z,13.70
2023-04-17T12:00:25.982Z,13.70
2023-04-17T12:02:00.608Z,13.70
2023-04-17T12:03:36.370Z,13.60
2023-04-17T12:05:17.633Z,13.50
2023-04-17T12:06:50.570Z,13.50
2023-04-17T12:08:23.694Z,13.40
2023-04-17T12:09:57.510Z,13.30
2023-04-17T12:11:32.563Z,13.30
2023-04-17T12:13:05.487Z,13.20
2023-04-17T12:14:38.243Z,13.20
2023-04-17T12:16:12.483Z,13.10
2023-04-17T12:17:45.228Z,13.10
2023-04-17T12:19:19.754Z,13.20
2023-04-17T12:20:52.569Z,13.20
2023-04-17T12:22:25.686Z,13.20
2023-04-17T12:23:58.410Z,13.30
2023-04-17T12:25:31.939Z,13.30
2023-04-17T12:27:04.789Z,13.30
2023-04-17T12:28:37.684Z,13.40
2023-04-17T12:30:11.887Z,13.50
2023-04-17T12:31:46.258Z,13.60
2023-04-17T12:33:18.966Z,13.60
2023-04-17T12:34:52.995Z,13.70
2023-04-17T12:36:25.832Z,13.70
2023-04-17T12:37:58.752Z,13.80
2023-04-17T12:39:32.686Z,13.80
2023-04-17T12:41:05.698Z,13.80
2023-04-17T12:42:48.307Z,13.80
2023-04-17T12:44:22.123Z,13.70
2023-04-17T12:45:54.945Z,13.60
2023-04-17T12:47:27.768Z,13.60
2023-04-17T12:49:00.570Z,13.60
2023-04-17T12:50:40.401Z,13.60
2023-04-17T12:52:13.096Z,13.60
2023-04-17T12:53:47.640Z,13.60
2023-04-17T12:55:20.498Z,13.50
2023-04-17T12:56:53.236Z,13.40
2023-04-17T12:58:26.049Z,13.40
2023-04-17T12:59:57.863Z,13.30
2023-04-17T13:01:30.757Z,13.20
2023-04-17T13:03:03.677Z,13.20
2023-04-17T13:04:36.603Z,13.20
2023-04-17T13:06:10.801Z,13.20
2023-04-17T13:07:43.523Z,13.10
2023-04-17T13:09:17.184Z,13.10
2023-04-17T13:10:49.872Z,13.20
2023-04-17T13:12:22.562Z,13.20
2023-04-17T13:13:55.351Z,13.10
2023-04-17T13:15:28.083Z,13.20
2023-04-17T13:17:00.930Z,13.20
2023-04-17T13:18:33.699Z,13.20
2023-04-17T13:20:07.741Z,13.10
2023-04-17T13:21:41.844Z,13.10
2023-04-17T13:23:14.592Z,13.00
2023-04-17T13:24:48.036Z,13.00
2023-04-17T13:26:21.038Z,12.90
2023-04-17T13:27:55.116Z,12.90
2023-04-17T13:29:27.947Z,12.90
2023-04-17T13:31:00.770Z,12.80
2023-04-17T13:32:34.834Z,12.90
2023-04-17T13:34:07.833Z,12.80
2023-04-17T13:35:40.640Z,12.80
2023-04-17T13:37:15.802Z,12.80
2023-04-17T13:38:47.548Z,12.80
2023-04-17T13:40:20.308Z,12.80
2023-04-17T13:41:53.046Z,12.70
2023-04-17T13:43:25.725Z,12.70
2023-04-17T13:44:58.501Z,12.60
2023-04-17T13:46:31.822Z,12.70
2023-04-17T13:48:04.716Z,12.70
2023-04-17T13:49:37.797Z,12.70
2023-04-17T13:51:10.533Z,12.70
2023-04-17T13:52:44.565Z,12.70
2023-04-17T13:54:17.309Z,12.70
2023-04-17T13:55:50.785Z,12.70
2023-04-17T13:57:23.536Z,12.70
2023-04-17T13:58:57.422Z,12.70
2023-04-17T14:00:30.394Z,12.80
2023-04-17T14:02:04.130Z,12.80
2023-04-17T14:03:39.720Z,12.80
2023-04-17T14:05:13.541Z,12.80
2023-04-17T14:06:49.431Z,12.80
2023-04-17T14:08:23.483Z,12.80
2023-04-17T14:09:56.189Z,12.80
2023-04-17T14:11:29.470Z,12.80
2023-04-17T14:13:02.286Z,12.80
2023-04-17T14:14:35.056Z,12.80
2023-04-17T14:16:08.305Z,12.80
2023-04-17T14:17:43.169Z,12.80
2023-04-17T14:19:16.547Z,12.80
2023-04-17T14:20:52.379Z,12.80
2023-04-17T14:22:25.057Z,12.80
2023-04-17T14:23:59.107Z,12.80
2023-04-17T14:25:31.815Z,12.80
2023-04-17T14:27:04.714Z,12.80
2023-04-17T14:28:37.597Z,12.80
2023-04-17T14:30:10.854Z,12.80
2023-04-17T14:31:43.583Z,12.80
2023-04-17T14:33:16.347Z,12.90
2023-04-17T14:34:49.111Z,12.80
2023-04-17T14:36:21.879Z,12.80
2023-04-17T14:37:54.583Z,12.90
2023-04-17T14:39:30.841Z,12.80
2023-04-17T14:41:04.419Z,12.90
2023-04-17T14:42:47.424Z,12.90
2023-04-17T14:44:26.652Z,12.90
2023-04-17T14:45:59.387Z,12.90
2023-04-17T14:47:32.249Z,12.80
2023-04-17T14:49:05.020Z,12.80
2023-04-17T14:50:37.868Z,12.80
2023-04-17T14:52:10.589Z,12.80
2023-04-17T14:53:43.416Z,12.80
2023-04-17T14:55:17.642Z,12.80
2023-04-17T14:56:50.620Z,12.80
2023-04-17T14:58:22.542Z,12.80
2023-04-17T14:59:55.365Z,12.80
2023-04-17T15:01:28.139Z,12.80
2023-04-17T15:03:00.974Z,12.80
2023-04-17T15:04:33.834Z,12.80
2023-04-17T15:06:06.872Z,12.80
2023-04-17T15:07:39.576Z,12.80
2023-04-17T15:09:13.190Z,12.80
2023-04-17T15:10:51.463Z,12.80
2023-04-17T15:12:24.581Z,12.80
2023-04-17T15:13:57.284Z,12.80
2023-04-17T15:15:29.991Z,12.70
2023-04-17T15:17:06.729Z,12.70
2023-04-17T15:18:40.216Z,12.70
2023-04-17T15:20:12.971Z,12.70
2023-04-17T15:21:45.686Z,12.60
2023-04-17T15:23:18.777Z,12.70
2023-04-17T15:24:51.608Z,12.60
2023-04-17T15:26:25.703Z,12.60
2023-04-17T15:27:58.467Z,12.70
2023-04-17T15:29:31.420Z,12.70
2023-04-17T15:31:04.431Z,12.70
2023-04-17T15:32:37.182Z,12.70
2023-04-17T15:34:09.879Z,12.80
2023-04-17T15:35:42.695Z,12.80
2023-04-17T15:37:15.404Z,12.80
2023-04-17T15:38:48.081Z,12.80
2023-04-17T15:40:20.932Z,12.80
2023-04-17T15:41:55.760Z,12.90
2023-04-17T15:43:28.455Z,12.90
2023-04-17T15:45:01.561Z,12.90
2023-04-17T15:46:33.423Z,12.90
2023-04-17T15:48:06.302Z,12.90
2023-04-17T15:49:39.056Z,12.90
2023-04-17T15:51:13.226Z,12.90
2023-04-17T15:52:45.940Z,12.90
2023-04-17T15:54:18.739Z,12.90
2023-04-17T15:55:52.953Z,12.90
2023-04-17T15:57:27.018Z,12.90
2023-04-17T15:58:59.700Z,12.90
2023-04-17T16:00:33.898Z,12.90
2023-04-17T16:02:07.290Z,12.90
2023-04-17T16:03:40.939Z,12.90
2023-04-17T16:05:13.773Z,12.90
2023-04-17T16:06:46.545Z,12.90
2023-04-17T16:08:19.267Z,12.90
2023-04-17T16:09:52.171Z,12.90
2023-04-17T16:11:25.560Z,12.90
2023-04-17T16:12:59.604Z,12.90
2023-04-17T16:14:32.421Z,12.90
2023-04-17T16:16:05.626Z,12.80
2023-04-17T16:17:38.627Z,12.80
2023-04-17T16:19:11.577Z,12.80
2023-04-17T16:20:45.499Z,12.80
2023-04-17T16:22:19.152Z,12.80
2023-04-17T16:23:51.844Z,12.80
2023-04-17T16:25:24.630Z,12.80
2023-04-17T16:26:58.241Z,12.80
2023-04-17T16:28:32.280Z,12.70
2023-04-17T16:30:05.970Z,12.70
2023-04-17T16:31:38.701Z,12.70
2023-04-17T16:33:11.416Z,12.70
2023-04-17T16:34:44.113Z,12.60
2023-04-17T16:36:16.835Z,12.60
2023-04-17T16:37:49.791Z,12.60
2023-04-17T16:39:22.512Z,12.60
2023-04-17T16:40:56.992Z,12.60
2023-04-17T16:42:29.684Z,12.50
2023-04-17T16:44:03.760Z,12.50
2023-04-17T16:45:37.377Z,12.50
2023-04-17T16:47:14.100Z,12.60
2023-04-17T16:48:47.389Z,12.50
2023-04-17T16:50:20.625Z,12.50
2023-04-17T16:51:53.348Z,12.60
2023-04-17T16:53:26.073Z,12.50
2023-04-17T16:54:59.544Z,12.50
2023-04-17T16:56:32.235Z,12.60
2023-04-17T16:58:05.097Z,12.60
2023-04-17T16:59:39.136Z,12.60
2023-04-17T17:01:11.901Z,12.60
2023-04-17T17:02:44.787Z,12.60
2023-04-17T17:04:17.773Z,12.60
2023-04-17T17:05:50.817Z,12.60
2023-04-17T17:07:23.515Z,12.60
2023-04-17T17:08:56.307Z,12.60
2023-04-17T17:10:29.034Z,12.60
2023-04-17T17:12:01.799Z,12.60
2023-04-17T17:13:34.486Z,12.60
2023-04-17T17:15:09.335Z,12.60
2023-04-17T17:16:42.344Z,12.60
2023-04-17T17:18:15.074Z,12.60
2023-04-17T17:19:47.747Z,12.60
2023-04-17T17:21:20.466Z,12.60
2023-04-17T17:22:53.156Z,12.60
2023-04-17T17:24:25.890Z,12.60
2023-04-17T17:25:58.593Z,12.60
2023-04-17T17:27:31.297Z,12.60
2023-04-17T17:29:04.106Z,12.60
2023-04-17T17:30:38.159Z,12.50
2023-04-17T17:32:10.992Z,12.60
2023-04-17T17:33:44.663Z,12.50
2023-04-17T17:35:17.495Z,12.50
2023-04-17T17:36:50.217Z,12.50
2023-04-17T17:38:23.036Z,12.50
2023-04-17T17:39:55.735Z,12.50
2023-04-17T17:41:28.431Z,12.50
2023-04-17T17:43:01.265Z,12.40
2023-04-17T17:44:33.970Z,12.40
2023-04-17T17:46:08.058Z,12.40
2023-04-17T17:47:40.905Z,12.40
2023-04-17T17:49:13.635Z,12.40
2023-04-17T17:50:46.358Z,12.40
2023-04-17T17:52:19.131Z,12.40
2023-04-17T17:53:51.834Z,12.40
2023-04-17T17:55:24.562Z,12.30
2023-04-17T17:56:57.247Z,12.30
2023-04-17T17:58:29.972Z,12.30
2023-04-17T18:00:02.747Z,12.30
2023-04-17T18:01:36.883Z,12.30
2023-04-17T18:03:09.725Z,12.30
2023-04-17T18:04:42.667Z,12.30
2023-04-17T18:06:15.452Z,12.30
2023-04-17T18:07:48.282Z,12.20
2023-04-17T18:09:21.008Z,12.20
2023-04-17T18:10:53.699Z,12.20
2023-04-17T18:12:26.692Z,12.20
2023-04-17T18:14:00.608Z,12.20
2023-04-17T18:15:33.412Z,12.20
2023-04-17T18:17:07.517Z,12.20
2023-04-17T18:18:40.259Z,12.10
2023-04-17T18:20:13.321Z,12.10
2023-04-17T18:21:47.704Z,12.10
2023-04-17T18:23:20.565Z,12.10
2023-04-17T18:24:54.269Z,12.10
2023-04-17T18:26:27.082Z,12.00
2023-04-17T18:27:59.800Z,12.00
2023-04-17T18:29:33.839Z,12.00
2023-04-17T18:31:06.629Z,12.00
2023-04-17T18:32:40.813Z,12.00
2023-04-17T18:34:13.748Z,12.00
2023-04-17T18:35:46.627Z,11.90
2023-04-17T18:37:19.366Z,12.00
2023-04-17T18:38:52.260Z,11.90
2023-04-17T18:40:25.017Z,12.00
2023-04-17T18:41:58.465Z,11.90
2023-04-17T18:43:31.133Z,11.90
2023-04-17T18:45:03.915Z,11.80
2023-04-17T18:46:36.762Z,11.80
2023-04-17T18:48:10.811Z,11.80
2023-04-17T18:49:43.565Z,11.80
2023-04-17T18:51:17.320Z,11.80
2023-04-17T18:52:51.238Z,11.80
2023-04-17T18:54:24.207Z,11.80
2023-04-17T18:55:57.900Z,11.70
2023-04-17T18:57:30.594Z,11.70
2023-04-17T18:59:03.314Z,11.70
2023-04-17T19:00:37.078Z,11.70
2023-04-17T19:02:09.876Z,11.70
2023-04-17T19:03:44.637Z,11.70
2023-04-17T19:05:17.415Z,11.70
2023-04-17T19:06:49.278Z,11.60
2023-04-17T19:08:21.975Z,11.60
2023-04-17T19:09:54.722Z,11.60
2023-04-17T19:11:27.962Z,11.60
2023-04-17T19:13:00.724Z,11.60
2023-04-17T19:14:33.432Z,11.60
2023-04-17T19:16:06.489Z,11.60
2023-04-17T19:17:39.329Z,11.60
2023-04-17T19:19:13.583Z,11.60
2023-04-17T19:20:47.823Z,11.50
2023-04-17T19:22:20.634Z,11.50
2023-04-17T19:23:53.333Z,11.50
2023-04-17T19:25:26.165Z,11.50
2023-04-17T19:26:58.956Z,11.50
2023-04-17T19:28:31.802Z,11.40
2023-04-17T19:30:05.053Z,11.40
2023-04-17T19:31:38.074Z,11.40
2023-04-17T19:33:11.071Z,11.40
2023-04-17T19:34:45.154Z,11.40
2023-04-17T19:36:17.847Z,11.40
2023-04-17T19:37:50.683Z,11.30
2023-04-17T19:39:23.442Z,11.40
2023-04-17T19:41:17.317Z,11.30
2023-04-17T19:42:50.040Z,11.30
2023-04-17T19:44:22.867Z,11.30
2023-04-17T19:45:55.572Z,11.30
2023-04-17T19:47:28.330Z,11.30
2023-04-17T19:49:01.190Z,11.20
2023-04-17T19:50:35.487Z,11.20
2023-04-17T19:52:08.275Z,11.20
2023-04-17T19:53:42.290Z,11.20
2023-04-17T19:55:14.981Z,11.20
2023-04-17T19:56:47.748Z,11.20
2023-04-17T19:58:20.431Z,11.20
2023-04-17T19:59:53.125Z,11.20
2023-04-17T20:01:25.868Z,11.10
2023-04-17T20:02:58.669Z,11.10
2023-04-17T20:04:31.522Z,11.10
2023-04-17T20:06:05.757Z,11.10
2023-04-17T20:07:38.441Z,11.10
2023-04-17T20:09:13.926Z,11.10